Time;durP1;ratioP1;P1;durP2;ratioP2;P2;SDS_P1;SDS_P2;PMS_P1;PMS_P2;Temp;Humidity;BMP_temperature;BMP_pressure;BME280_temperature;BME280_humidity;BME280_pressure;Samples;Min_cycle;Max_cycle;Signal;HPM_P1;HPM_P2
2021/04/02 00:00:36;;;;;;;5.00;2.65;;;12.40;96.90;;;;;;5093309;28;20032;-69
2021/04/02 00:03:16;;;;;;;7.72;2.75;;;12.20;97.00;;;;;;5093307;28;20032;-69
2021/04/02 00:05:42;;;;;;;7.70;2.35;;;12.10;97.40;;;;;;5091956;28;20062;-69
2021/04/02 00:08:09;;;;;;;7.05;2.58;;;12.00;97.20;;;;;;5093249;28;20473;-69
2021/04/02 00:10:49;;;;;;;4.97;2.20;;;12.00;96.20;;;;;;5093003;28;20035;-69
2021/04/02 00:13:20;;;;;;;4.40;2.20;;;12.00;95.70;;;;;;5093185;28;20034;-69
2021/04/02 00:15:47;;;;;;;;;;;11.90;95.50;;;;;;5093589;28;20032;-69
2021/04/02 00:18:13;;;;;;;5.60;2.28;;;11.80;95.50;;;;;;5092844;28;19915;-68
2021/04/02 00:20:40;;;;;;;8.18;2.83;;;11.70;95.30;;;;;;5093062;28;20020;-68
2021/04/02 00:23:08;;;;;;;7.68;2.92;;;11.70;95.20;;;;;;5091524;28;20492;-69
2021/04/02 00:25:34;;;;;;;6.72;2.67;;;11.60;95.40;;;;;;5092895;28;20150;-69
2021/04/02 00:28:03;;;;;;;4.75;2.40;;;11.40;95.70;;;;;;5092960;28;20032;-68
2021/04/02 00:30:50;;;;;;;5.43;2.15;;;11.40;95.60;;;;;;5091447;28;20055;-68
2021/04/02 00:33:19;;;;;;;4.88;2.47;;;11.40;95.40;;;;;;5092784;28;20043;-68
2021/04/02 00:35:45;;;;;;;6.97;2.92;;;11.40;95.20;;;;;;5091752;28;20066;-68
2021/04/02 00:38:11;;;;;;;5.18;2.15;;;11.40;94.80;;;;;;5092822;28;20476;-68
2021/04/02 00:40:53;;;;;;;7.25;2.40;;;11.40;94.50;;;;;;5092741;28;20055;-68
2021/04/02 00:43:31;;;;;;;3.05;2.10;;;11.30;94.40;;;;;;5075466;28;20028;-68
2021/04/02 00:45:56;;;;;;;5.72;1.98;;;11.10;94.00;;;;;;5092423;28;20119;-69
2021/04/02 00:48:23;;;;;;;5.43;2.15;;;11.10;93.70;;;;;;5092383;28;20526;-69
2021/04/02 00:50:57;;;;;;;9.35;2.10;;;10.90;93.50;;;;;;5091519;28;20115;-69
2021/04/02 00:53:33;;;;;;;6.65;2.38;;;10.90;93.60;;;;;;5091178;28;20116;-69
2021/04/02 00:56:01;;;;;;;6.80;2.30;;;10.80;93.90;;;;;;5091429;28;20032;-68
2021/04/02 00:58:32;;;;;;;9.95;2.67;;;10.70;93.60;;;;;;5091369;28;20111;-69
2021/04/02 01:00:58;;;;;;;8.35;2.50;;;10.70;93.70;;;;;;5092597;28;20040;-69
2021/04/02 01:03:24;;;;;;;5.00;2.10;;;10.60;93.90;;;;;;5092436;28;20033;-68
2021/04/02 01:05:53;;;;;;;7.35;2.40;;;10.60;94.10;;;;;;5092059;28;20370;-68
2021/04/02 01:08:28;;;;;;;8.35;3.00;;;10.50;94.40;;;;;;5091812;28;20131;-70
2021/04/02 01:10:58;;;;;;;5.85;2.53;;;10.30;94.70;;;;;;5097263;28;20024;-69
2021/04/02 01:13:30;;;;;;;6.68;2.22;;;10.20;95.00;;;;;;5099143;28;20043;-69
2021/04/02 01:16:09;;;;;;;8.50;2.25;;;10.20;95.00;;;;;;5098005;28;20105;-69
2021/04/02 01:19:19;;;;;;;5.63;2.33;;;10.00;95.50;;;;;;5098905;28;20040;-69
2021/04/02 01:22:27;;;;;;;4.97;2.00;;;10.10;95.50;;;;;;5093709;28;20040;-69
2021/04/02 01:25:05;;;;;;;8.20;2.30;;;10.10;95.20;;;;;;5087024;28;20518;-69
2021/04/02 01:28:09;;;;;;;7.03;2.40;;;10.00;95.00;;;;;;5098588;28;20549;-69
2021/04/02 01:30:38;;;;;;;13.52;2.55;;;10.00;95.20;;;;;;5093488;28;20498;-69
2021/04/02 01:33:07;;;;;;;6.45;2.45;;;10.00;95.30;;;;;;5097800;28;20081;-69
2021/04/02 01:35:37;;;;;;;7.20;2.45;;;9.90;95.50;;;;;;5098831;28;20024;-69
2021/04/02 01:38:25;;;;;;;8.45;1.98;;;10.00;95.40;;;;;;5098957;28;20046;-69
2021/04/02 01:40:56;;;;;;;6.20;2.40;;;9.90;95.60;;;;;;5098704;28;20024;-69
2021/04/02 01:43:43;;;;;;;7.60;2.13;;;9.80;95.80;;;;;;5097329;28;20040;-69
2021/04/02 01:46:10;;;;;;;6.32;2.28;;;9.80;95.80;;;;;;5097571;28;20504;-69
2021/04/02 01:48:40;;;;;;;9.32;2.35;;;9.70;96.00;;;;;;5097168;28;20114;-69
2021/04/02 01:51:06;;;;;;;7.10;2.35;;;9.60;96.00;;;;;;5098876;28;20034;-69
2021/04/02 01:53:40;;;;;;;8.48;2.53;;;9.50;96.20;;;;;;5098379;28;20391;-69
2021/04/02 01:56:07;;;;;;;4.47;2.42;;;9.40;96.30;;;;;;5098826;28;20028;-69
2021/04/02 01:58:36;;;;;;;7.03;2.33;;;9.30;96.60;;;;;;5097210;28;20059;-69
2021/04/02 02:01:04;;;;;;;8.07;2.60;;;9.20;96.80;;;;;;5097163;28;20032;-69
2021/04/02 02:03:32;;;;;;;8.15;2.75;;;9.20;97.10;;;;;;5098553;28;20028;-69
2021/04/02 02:06:01;;;;;;;6.38;2.40;;;9.10;97.20;;;;;;5097114;28;20056;-69
2021/04/02 02:08:29;;;;;;;10.65;3.83;;;9.00;97.30;;;;;;5097337;28;20225;-69
2021/04/02 02:11:17;;;;;;;6.50;2.88;;;8.90;97.60;;;;;;5097394;28;20020;-69
2021/04/02 02:13:51;;;;;;;3.75;2.30;;;8.80;98.00;;;;;;5098652;28;20043;-69
2021/04/02 02:16:21;;;;;;;9.82;2.30;;;8.70;98.30;;;;;;5097425;28;20032;-69
2021/04/02 02:18:55;;;;;;;7.97;2.92;;;8.70;98.40;;;;;;5098615;28;20078;-69
2021/04/02 02:21:22;;;;;;;8.10;2.70;;;8.60;98.60;;;;;;5095975;28;20058;-69
2021/04/02 02:23:49;;;;;;;6.03;3.50;;;8.50;98.90;;;;;;5095330;28;20044;-70
2021/04/02 02:26:16;;;;;;;8.38;2.72;;;8.50;99.20;;;;;;5095105;28;20109;-69
2021/04/02 02:28:43;;;;;;;6.80;2.55;;;8.40;99.50;;;;;;5093945;28;20024;-69
2021/04/02 02:31:11;;;;;;;7.13;2.67;;;8.40;99.80;;;;;;5095277;28;20468;-69
2021/04/02 02:33:38;;;;;;;4.22;2.50;;;8.30;99.90;;;;;;5093599;28;20447;-69
2021/04/02 02:36:04;;;;;;;6.00;2.65;;;8.30;99.90;;;;;;5095190;28;20020;-70
2021/04/02 02:38:32;;;;;;;7.65;2.58;;;8.20;99.90;;;;;;5093737;28;20024;-69
2021/04/02 02:40:59;;;;;;;6.20;2.38;;;8.20;99.90;;;;;;5094913;28;20058;-69
2021/04/02 02:43:25;;;;;;;5.78;2.40;;;8.10;99.90;;;;;;5094849;28;20032;-69
2021/04/02 02:45:52;;;;;;;7.43;3.38;;;8.10;99.90;;;;;;5095005;28;20039;-69
2021/04/02 02:48:18;;;;;;;6.63;3.25;;;8.00;99.90;;;;;;5094839;28;20043;-69
2021/04/02 02:50:54;;;;;;;9.63;3.30;;;8.00;99.90;;;;;;5094714;28;20027;-69
2021/04/02 02:53:26;;;;;;;5.85;2.90;;;7.90;99.90;;;;;;5093518;28;20028;-69
2021/04/02 02:55:53;;;;;;;6.00;2.80;;;7.90;99.90;;;;;;5076683;28;20024;-69
2021/04/02 02:58:25;;;;;;;8.68;3.05;;;7.80;99.90;;;;;;5093439;28;20477;-69
2021/04/02 03:00:52;;;;;;;5.75;3.30;;;7.70;99.90;;;;;;5077036;28;20122;-69
2021/04/02 03:03:20;;;;;;;9.60;3.13;;;7.70;99.90;;;;;;5093440;28;20040;-69
2021/04/02 03:05:50;;;;;;;11.27;4.25;;;7.60;99.90;;;;;;5092979;28;20040;-69
2021/04/02 03:08:21;;;;;;;21.70;4.10;;;7.60;99.90;;;;;;5093188;28;20036;-69
2021/04/02 03:10:48;;;;;;;8.75;3.72;;;7.60;99.90;;;;;;5094559;28;20073;-69
2021/04/02 03:13:20;;;;;;;8.27;3.97;;;7.40;99.90;;;;;;5093266;28;20088;-69
2021/04/02 03:15:49;;;;;;;10.73;3.75;;;7.30;99.90;;;;;;5059594;28;20036;-69
2021/04/02 03:18:19;;;;;;;6.25;4.22;;;7.30;99.90;;;;;;5093034;28;20028;-69
2021/04/02 03:20:48;;;;;;;9.77;4.00;;;7.30;99.90;;;;;;5092624;28;20421;-69
2021/04/02 03:23:17;;;;;;;9.10;4.20;;;7.20;99.90;;;;;;5093075;28;20123;-69
2021/04/02 03:25:46;;;;;;;15.32;4.45;;;7.20;99.90;;;;;;5094121;28;20042;-69
2021/04/02 03:28:15;;;;;;;14.50;4.32;;;7.20;99.90;;;;;;5092709;28;20477;-69
2021/04/02 03:30:41;;;;;;;11.07;3.90;;;7.10;99.90;;;;;;5092293;28;20059;-69
2021/04/02 03:33:25;;;;;;;8.23;4.63;;;7.10;99.90;;;;;;5092632;28;20092;-69
2021/04/02 03:36:05;;;;;;;8.13;4.10;;;7.10;99.90;;;;;;5092254;28;20047;-69
2021/04/02 03:38:36;;;;;;;11.85;4.93;;;7.00;99.90;;;;;;5091570;28;20037;-69
2021/04/02 03:41:11;;;;;;;11.85;4.85;;;7.00;99.90;;;;;;5093985;28;20170;-70
2021/04/02 03:43:39;;;;;;;7.07;4.03;;;6.90;99.90;;;;;;5093691;28;20492;-69
2021/04/02 03:46:08;;;;;;;9.10;4.55;;;7.00;99.90;;;;;;5093782;28;20042;-69
2021/04/02 03:48:38;;;;;;;9.63;4.53;;;6.90;99.90;;;;;;5092322;28;20109;-69
2021/04/02 03:51:06;;;;;;;10.90;4.78;;;6.90;99.90;;;;;;5092349;28;20054;-69
2021/04/02 03:53:57;;;;;;;12.30;5.13;;;6.80;99.90;;;;;;5058563;28;20042;-69
2021/04/02 03:56:28;;;;;;;9.43;5.03;;;6.80;99.90;;;;;;5092562;28;20585;-69
2021/04/02 03:58:57;;;;;;;10.57;5.43;;;6.70;99.90;;;;;;5092363;28;20024;-68
2021/04/02 04:01:28;;;;;;;8.65;4.95;;;6.70;99.90;;;;;;5092357;28;20036;-69
2021/04/02 04:03:58;;;;;;;;;;;6.60;99.90;;;;;;5093669;28;20050;-69
2021/04/02 04:06:26;;;;;;;11.38;5.18;;;6.70;99.90;;;;;;5108723;28;19924;-69
2021/04/02 04:09:00;;;;;;;8.57;5.30;;;6.60;99.90;;;;;;5091753;28;20429;-69
2021/04/02 04:11:30;;;;;;;11.48;4.75;;;6.60;99.90;;;;;;5058531;28;20024;-69
2021/04/02 04:13:58;;;;;;;9.65;5.18;;;6.60;99.90;;;;;;5074777;28;20028;-69
2021/04/02 04:16:25;;;;;;;16.02;6.43;;;6.60;99.90;;;;;;5092038;28;20085;-68
2021/04/02 04:18:57;;;;;;;10.70;5.43;;;6.50;99.90;;;;;;5093218;28;20426;-69
2021/04/02 04:21:29;;;;;;;10.10;5.43;;;6.60;99.90;;;;;;5092975;28;20110;-68
2021/04/02 04:23:57;;;;;;;8.50;5.25;;;6.50;99.90;;;;;;5091761;28;20072;-68
2021/04/02 04:26:28;;;;;;;11.27;5.53;;;6.50;99.90;;;;;;5091867;28;20035;-68
2021/04/02 04:28:56;;;;;;;10.57;5.60;;;6.40;99.90;;;;;;5091964;28;20040;-68
2021/04/02 04:31:23;;;;;;;10.02;5.93;;;6.40;99.90;;;;;;5091477;28;20112;-68
2021/04/02 04:33:53;;;;;;;12.52;5.47;;;6.30;99.90;;;;;;5091237;28;20077;-70
2021/04/02 04:36:21;;;;;;;9.88;6.50;;;6.30;99.90;;;;;;5091359;28;20060;-70
2021/04/02 04:38:52;;;;;;;12.57;6.00;;;6.30;99.90;;;;;;5074524;28;20130;-70
2021/04/02 04:41:19;;;;;;;;;;;6.30;99.90;;;;;;5091706;28;20043;-69
2021/04/02 04:43:46;;;;;;;16.35;6.40;;;6.30;99.90;;;;;;5092379;28;19919;-69
2021/04/02 04:46:12;;;;;;;13.13;6.03;;;6.20;99.90;;;;;;5091299;28;20040;-68
2021/04/02 04:48:39;;;;;;;13.65;6.07;;;6.30;99.90;;;;;;5091306;28;20466;-69
2021/04/02 04:51:07;;;;;;;12.02;6.43;;;6.30;99.90;;;;;;5092662;28;20039;-69
2021/04/02 04:53:37;;;;;;;15.25;6.88;;;6.30;99.90;;;;;;5091117;28;20241;-69
2021/04/02 04:56:06;;;;;;;13.20;6.17;;;6.10;99.90;;;;;;5091509;28;20031;-69
2021/04/02 04:58:36;;;;;;;11.23;6.63;;;6.10;99.90;;;;;;5091081;28;20496;-69
2021/04/02 05:01:08;;;;;;;13.80;6.43;;;6.10;99.90;;;;;;5090984;28;20028;-69
2021/04/02 05:03:36;;;;;;;12.30;7.45;;;6.00;99.90;;;;;;5091373;28;20024;-68
2021/04/02 05:06:02;;;;;;;19.40;7.25;;;6.10;99.90;;;;;;5090849;28;20366;-69
2021/04/02 05:08:45;;;;;;;13.98;6.10;;;6.10;99.90;;;;;;5090823;28;20456;-69
2021/04/02 05:11:21;;;;;;;15.25;7.03;;;6.00;99.90;;;;;;5092445;28;20584;-69
2021/04/02 05:13:50;;;;;;;13.18;6.68;;;6.10;99.90;;;;;;5074484;28;20029;-69
2021/04/02 05:16:19;;;;;;;12.70;7.28;;;6.00;99.90;;;;;;5074308;28;20368;-70
2021/04/02 05:18:47;;;;;;;13.25;6.30;;;6.10;99.90;;;;;;5090839;28;20040;-70
2021/04/02 05:21:13;;;;;;;14.68;6.25;;;6.10;99.90;;;;;;5090782;28;20024;-69
2021/04/02 05:23:39;;;;;;;16.45;6.93;;;6.00;99.90;;;;;;5091068;28;20043;-69
2021/04/02 05:26:10;;;;;;;13.93;6.85;;;6.10;99.90;;;;;;5092310;28;20028;-69
2021/04/02 05:28:36;;;;;;;14.45;6.97;;;5.90;99.90;;;;;;5090972;28;20032;-69
2021/04/02 05:31:02;;;;;;;15.05;6.95;;;5.90;99.90;;;;;;5092254;28;20028;-70
2021/04/02 05:33:28;;;;;;;9.98;6.55;;;5.90;99.90;;;;;;5091182;28;20119;-69
2021/04/02 05:35:53;;;;;;;12.88;7.30;;;5.80;99.90;;;;;;5092073;28;20024;-69
2021/04/02 05:38:22;;;;;;;15.43;7.10;;;5.90;99.90;;;;;;5092446;28;20081;-71
2021/04/02 05:40:48;;;;;;;11.77;7.00;;;5.90;99.90;;;;;;5073358;28;20032;-70
2021/04/02 05:43:35;;;;;;;14.43;7.70;;;5.90;99.90;;;;;;5092186;28;20028;-73
2021/04/02 05:46:03;;;;;;;12.73;8.05;;;5.80;99.90;;;;;;5092141;28;20035;-73
2021/04/02 05:48:32;;;;;;;14.23;7.57;;;6.00;99.90;;;;;;5090912;28;20492;-73
2021/04/02 05:50:59;;;;;;;13.95;7.97;;;6.10;99.90;;;;;;5086949;28;20167;-72
2021/04/02 05:53:29;;;;;;;15.88;7.28;;;6.10;99.90;;;;;;5069012;28;20044;-72
2021/04/02 05:55:58;;;;;;;11.45;7.00;;;6.10;99.90;;;;;;5058617;28;20077;-73
2021/04/02 05:58:25;;;;;;;13.15;7.07;;;6.20;99.90;;;;;;5055626;28;20431;-72
2021/04/02 06:00:51;;;;;;;13.20;7.07;;;6.20;99.90;;;;;;5070196;28;20044;-71
2021/04/02 06:03:18;;;;;;;14.65;7.53;;;6.30;99.90;;;;;;5075619;28;20035;-74
2021/04/02 06:05:44;;;;;;;11.07;6.30;;;6.40;99.90;;;;;;5075079;28;20051;-72
2021/04/02 06:08:13;;;;;;;15.27;7.07;;;6.40;99.90;;;;;;5090696;28;20033;-74
2021/04/02 06:10:39;;;;;;;14.48;7.25;;;6.50;99.90;;;;;;5090464;28;20217;-73
2021/04/02 06:13:05;;;;;;;14.50;6.95;;;6.50;99.90;;;;;;5075119;28;20044;-73
2021/04/02 06:15:34;;;;;;;13.50;7.72;;;6.60;99.90;;;;;;5074976;28;20025;-72
2021/04/02 06:18:26;;;;;;;13.50;7.65;;;6.50;99.90;;;;;;5073675;28;20431;-72
2021/04/02 06:20:54;;;;;;;14.40;7.60;;;6.70;99.90;;;;;;5074384;28;20052;-73
2021/04/02 06:23:27;;;;;;;11.45;6.93;;;6.80;99.90;;;;;;5075171;28;20477;-74
2021/04/02 06:25:58;;;;;;;10.90;6.47;;;6.80;99.90;;;;;;5073333;28;20036;-73
2021/04/02 06:28:27;;;;;;;14.30;7.83;;;6.80;99.90;;;;;;5074840;28;20028;-73
2021/04/02 06:31:11;;;;;;;14.25;6.82;;;7.00;99.90;;;;;;5073330;28;20032;-73
2021/04/02 06:34:15;;;;;;;12.43;7.28;;;7.00;99.90;;;;;;5074979;28;20068;-74
2021/04/02 06:36:48;;;;;;;11.63;7.10;;;7.00;99.90;;;;;;5074338;28;20040;-74
2021/04/02 06:39:13;;;;;;;9.75;6.18;;;7.10;99.90;;;;;;5057273;28;20056;-74
2021/04/02 06:41:42;;;;;;;13.07;7.30;;;7.10;99.90;;;;;;5074532;28;20067;-74
2021/04/02 06:44:09;;;;;;;11.85;6.65;;;7.10;99.90;;;;;;5074832;28;20046;-74
2021/04/02 06:46:38;;;;;;;10.93;6.88;;;7.20;99.90;;;;;;5074282;28;20119;-74
2021/04/02 06:49:16;;;;;;;10.07;6.38;;;7.20;99.90;;;;;;5074446;28;20036;-74
2021/04/02 06:51:48;;;;;;;10.80;6.57;;;7.30;99.90;;;;;;5074394;28;20107;-74
2021/04/02 06:54:17;;;;;;;12.05;6.60;;;7.30;99.90;;;;;;5073232;28;20028;-72
2021/04/02 06:56:50;;;;;;;14.32;6.32;;;7.40;99.90;;;;;;5074169;28;20036;-75
2021/04/02 06:59:20;;;;;;;11.55;6.38;;;7.50;99.90;;;;;;5074301;28;20031;-72
2021/04/02 07:01:51;;;;;;;11.43;6.65;;;7.60;99.90;;;;;;5074323;28;20024;-75
2021/04/02 07:04:23;;;;;;;10.32;6.93;;;7.80;99.90;;;;;;5074504;28;20062;-76
2021/04/02 07:06:55;;;;;;;11.85;6.10;;;7.80;99.90;;;;;;5073476;28;20048;-77
2021/04/02 07:09:22;;;;;;;8.30;5.40;;;7.80;99.90;;;;;;5072815;28;20070;-73
2021/04/02 07:11:53;;;;;;;11.02;6.70;;;7.90;99.90;;;;;;5074027;28;20037;-72
2021/04/02 07:14:19;;;;;;;9.15;5.47;;;8.00;99.90;;;;;;5072821;28;20037;-69
2021/04/02 07:16:46;;;;;;;12.35;6.18;;;8.10;99.90;;;;;;5073856;28;20486;-71
2021/04/02 07:19:12;;;;;;;14.60;7.28;;;8.20;99.90;;;;;;5073975;28;20060;-72
2021/04/02 07:21:40;;;;;;;10.52;5.75;;;8.20;99.90;;;;;;5087153;28;20063;-72
2021/04/02 07:24:07;;;;;;;12.43;6.28;;;8.10;99.90;;;;;;5073977;28;20103;-71
2021/04/02 07:26:33;;;;;;;11.85;5.97;;;8.20;99.90;;;;;;5089269;28;20035;-71
2021/04/02 07:29:00;;;;;;;10.77;6.20;;;8.30;99.90;;;;;;5073535;28;20385;-71
2021/04/02 07:31:27;;;;;;;12.25;5.60;;;8.40;99.90;;;;;;5089186;28;20485;-72
2021/04/02 07:33:54;;;;;;;11.48;6.90;;;8.40;99.90;;;;;;5088764;28;20032;-73
2021/04/02 07:36:21;;;;;;;10.43;5.10;;;8.40;99.90;;;;;;5073618;28;20029;-77
2021/04/02 07:38:52;;;;;;;10.30;5.45;;;8.50;99.90;;;;;;5088647;28;20028;-75
2021/04/02 07:41:19;;;;;;;10.45;5.45;;;8.60;99.90;;;;;;5073653;28;20036;-76
2021/04/02 07:43:54;;;;;;;10.48;5.82;;;8.80;99.90;;;;;;5072254;28;20048;-75
2021/04/02 07:46:27;;;;;;;7.75;5.18;;;8.90;99.90;;;;;;5070954;28;20477;-76
2021/04/02 07:49:04;;;;;;;9.65;5.32;;;9.00;99.90;;;;;;5088451;28;20032;-75
2021/04/02 07:51:47;;;;;;;8.57;5.60;;;9.30;99.90;;;;;;5073496;28;20032;-74
2021/04/02 07:54:21;;;;;;;9.48;5.40;;;9.30;99.90;;;;;;5088775;28;20035;-74
2021/04/02 07:56:55;;;;;;;10.02;5.28;;;9.30;99.90;;;;;;5072994;28;20041;-74
2021/04/02 07:59:54;;;;;;;10.25;6.03;;;9.40;99.90;;;;;;5073314;28;20489;-75
2021/04/02 08:02:30;;;;;;;18.85;10.02;;;9.50;99.90;;;;;;5071369;28;20049;-75
2021/04/02 08:04:57;;;;;;;7.88;5.32;;;9.50;99.90;;;;;;5088304;28;20032;-74
2021/04/02 08:07:41;;;;;;;8.05;5.40;;;9.70;99.90;;;;;;5072554;28;20127;-74
2021/04/02 08:10:11;;;;;;;9.52;6.00;;;9.70;99.90;;;;;;5088528;28;20029;-74
2021/04/02 08:12:38;;;;;;;10.00;5.77;;;9.80;99.90;;;;;;5088548;28;20074;-75
2021/04/02 08:15:13;;;;;;;9.60;5.68;;;9.80;99.90;;;;;;5088470;28;20358;-73
2021/04/02 08:17:40;;;;;;;11.77;5.05;;;9.90;99.90;;;;;;5072416;28;20028;-74
2021/04/02 08:20:17;;;;;;;8.88;5.30;;;10.20;99.90;;;;;;5072374;28;20036;-73
2021/04/02 08:22:47;;;;;;;8.68;5.10;;;10.20;99.90;;;;;;5072546;28;20100;-74
2021/04/02 08:25:18;;;;;;;10.75;5.55;;;10.20;99.90;;;;;;5088188;28;20477;-74
2021/04/02 08:27:47;;;;;;;10.43;6.03;;;10.30;99.90;;;;;;5087924;28;20028;-73
2021/04/02 08:30:15;;;;;;;8.05;5.53;;;10.50;99.70;;;;;;5071163;28;20123;-74
2021/04/02 08:32:45;;;;;;;8.90;4.95;;;10.80;99.00;;;;;;5072625;28;20058;-74
2021/04/02 08:35:14;;;;;;;8.68;5.50;;;10.60;98.50;;;;;;5072378;28;20048;-73
2021/04/02 08:38:16;;;;;;;10.50;5.28;;;10.70;98.90;;;;;;5071043;28;20032;-73
2021/04/02 08:40:42;;;;;;;8.55;4.78;;;11.10;97.50;;;;;;5069908;28;20040;-74
2021/04/02 08:43:17;;;;;;;9.55;6.20;;;11.20;96.90;;;;;;5072245;28;20044;-73
2021/04/02 08:45:43;;;;;;;9.30;5.13;;;11.10;97.20;;;;;;5071020;28;20079;-73
2021/04/02 08:48:21;;;;;;;11.98;6.63;;;11.50;96.70;;;;;;5087896;28;20040;-73
2021/04/02 08:50:48;;;;;;;9.68;6.07;;;11.60;96.00;;;;;;5087675;28;20028;-73
2021/04/02 08:53:14;;;;;;;7.68;5.18;;;11.90;95.30;;;;;;5070873;28;20036;-73
2021/04/02 08:55:44;;;;;;;8.88;5.13;;;12.00;95.10;;;;;;5072378;28;20081;-73
2021/04/02 08:58:10;;;;;;;8.15;5.10;;;12.20;95.20;;;;;;5087523;28;20040;-72
2021/04/02 09:00:36;;;;;;;8.40;5.28;;;12.50;93.90;;;;;;5072258;28;20056;-73
2021/04/02 09:03:04;;;;;;;7.30;4.97;;;12.20;94.10;;;;;;5087600;28;20060;-73
2021/04/02 09:05:30;;;;;;;11.23;5.85;;;12.30;93.70;;;;;;5087476;28;20051;-72
2021/04/02 09:08:00;;;;;;;8.98;5.30;;;12.70;93.10;;;;;;5087601;28;20041;-71
2021/04/02 09:10:26;;;;;;;7.15;4.38;;;13.20;91.80;;;;;;5072151;28;20074;-72
2021/04/02 09:12:54;;;;;;;7.57;5.03;;;12.80;91.20;;;;;;5071916;28;20055;-72
2021/04/02 09:15:28;;;;;;;8.85;5.10;;;11.60;92.50;;;;;;5087722;28;20029;-73
2021/04/02 09:17:54;;;;;;;8.30;4.90;;;11.40;93.10;;;;;;5070294;28;20024;-72
2021/04/02 09:20:20;;;;;;;10.32;5.43;;;11.70;93.50;;;;;;5071856;28;20028;-72
2021/04/02 09:22:47;;;;;;;6.55;4.63;;;11.10;94.80;;;;;;5070548;28;20036;-72
2021/04/02 09:25:19;;;;;;;8.38;4.72;;;11.20;94.60;;;;;;5072066;28;20382;-72
2021/04/02 09:27:45;;;;;;;8.10;5.00;;;11.30;94.10;;;;;;5072047;28;20039;-72
2021/04/02 09:30:25;;;;;;;8.63;5.28;;;11.40;93.70;;;;;;5072608;28;20040;-72
2021/04/02 09:32:52;;;;;;;8.27;5.18;;;12.00;92.90;;;;;;5076064;28;20060;-73
2021/04/02 09:35:18;;;;;;;8.18;4.97;;;12.30;91.70;;;;;;5074314;28;20033;-72
2021/04/02 09:37:44;;;;;;;9.63;4.45;;;11.60;93.00;;;;;;5076017;28;20111;-74
2021/04/02 09:40:10;;;;;;;7.15;4.72;;;11.80;92.70;;;;;;5091355;28;20032;-72
2021/04/02 09:42:37;;;;;;;8.10;4.63;;;12.10;92.40;;;;;;5074464;28;20028;-73
2021/04/02 09:45:08;;;;;;;8.85;4.78;;;12.30;92.10;;;;;;5075699;28;20028;-73
2021/04/02 09:47:47;;;;;;;9.68;4.47;;;12.60;91.60;;;;;;5075860;28;20033;-72
2021/04/02 09:50:16;;;;;;;7.80;4.57;;;12.50;91.80;;;;;;5075456;28;20032;-73
2021/04/02 09:52:43;;;;;;;8.48;4.43;;;12.10;91.90;;;;;;5091431;28;20358;-71
2021/04/02 09:55:11;;;;;;;6.22;4.45;;;12.20;92.00;;;;;;5075473;28;20032;-73
2021/04/02 09:57:37;;;;;;;7.05;4.32;;;12.40;91.90;;;;;;5075637;28;20043;-73
2021/04/02 10:00:06;;;;;;;7.18;4.75;;;12.60;91.40;;;;;;5075018;28;20408;-73
2021/04/02 10:02:34;;;;;;;8.25;4.82;;;12.00;91.70;;;;;;5073991;28;20039;-73
2021/04/02 10:05:01;;;;;;;10.13;5.40;;;12.10;91.70;;;;;;5074712;28;20025;-72
2021/04/02 10:07:26;;;;;;;6.38;4.13;;;12.70;90.90;;;;;;5074576;28;20502;-72
2021/04/02 10:09:52;;;;;;;8.30;5.28;;;13.20;90.50;;;;;;5073440;28;20171;-73
2021/04/02 10:12:18;;;;;;;6.07;4.32;;;13.80;88.70;;;;;;5075295;28;20043;-72
2021/04/02 10:14:44;;;;;;;5.90;3.92;;;13.60;87.40;;;;;;5074919;28;20035;-72
2021/04/02 10:17:10;;;;;;;6.53;4.30;;;14.00;85.20;;;;;;5073640;28;20461;-72
2021/04/02 10:19:37;;;;;;;8.40;4.93;;;13.40;86.10;;;;;;5090150;28;20024;-72
2021/04/02 10:22:04;;;;;;;8.65;4.70;;;12.40;89.50;;;;;;5074963;28;20032;-72
2021/04/02 10:24:30;;;;;;;7.30;5.15;;;13.10;88.70;;;;;;5074912;28;20540;-72
2021/04/02 10:26:58;;;;;;;7.60;4.07;;;13.30;87.40;;;;;;5074629;28;20063;-73
2021/04/02 10:29:25;;;;;;;7.70;4.43;;;13.20;87.10;;;;;;5090137;28;20040;-73
2021/04/02 10:31:52;;;;;;;8.30;4.53;;;12.00;89.00;;;;;;5074786;28;20082;-73
2021/04/02 10:34:18;;;;;;;8.63;4.20;;;12.20;90.70;;;;;;5074613;28;20509;-73
2021/04/02 10:36:44;;;;;;;6.57;4.45;;;12.40;90.30;;;;;;5074937;28;20114;-72
2021/04/02 10:39:10;;;;;;;5.82;4.00;;;12.50;88.30;;;;;;5074305;28;20036;-72
2021/04/02 10:41:40;;;;;;;10.00;4.43;;;12.70;88.10;;;;;;5072860;28;20368;-72
2021/04/02 10:44:07;;;;;;;9.57;4.70;;;12.60;88.30;;;;;;5074476;28;20032;-73
2021/04/02 10:46:32;;;;;;;13.65;7.55;;;12.50;89.60;;;;;;5074362;28;20392;-73
2021/04/02 10:48:58;;;;;;;9.30;4.25;;;13.10;89.20;;;;;;5074393;28;20032;-73
2021/04/02 10:51:25;;;;;;;7.90;5.38;;;14.00;85.40;;;;;;5090075;28;20385;-71
2021/04/02 10:54:00;;;;;;;8.40;5.28;;;13.90;83.00;;;;;;5074569;28;20032;-72
2021/04/02 10:56:28;;;;;;;6.57;3.97;;;13.60;85.70;;;;;;5074554;28;20039;-72
2021/04/02 10:58:53;;;;;;;7.00;3.97;;;14.10;83.80;;;;;;5073166;28;20025;-72
2021/04/02 11:01:19;;;;;;;6.15;3.75;;;14.00;84.00;;;;;;5074568;28;20173;-72
2021/04/02 11:03:45;;;;;;;6.82;4.03;;;13.90;84.00;;;;;;5090339;28;20036;-71
2021/04/02 11:06:11;;;;;;;6.28;3.80;;;14.10;83.40;;;;;;5074121;28;20053;-72
2021/04/02 11:08:36;;;;;;;5.45;3.58;;;14.00;83.10;;;;;;5074522;28;20056;-73
2021/04/02 11:11:02;;;;;;;6.78;3.58;;;13.20;84.80;;;;;;5074117;28;20035;-72
2021/04/02 11:13:28;;;;;;;6.75;3.72;;;13.80;84.70;;;;;;5074221;28;20055;-72
2021/04/02 11:15:54;;;;;;;5.32;3.58;;;13.70;85.20;;;;;;5073774;28;20485;-72
2021/04/02 11:18:20;;;;;;;4.97;3.72;;;14.40;83.00;;;;;;5073870;28;20367;-73
2021/04/02 11:20:45;;;;;;;5.05;3.53;;;15.00;80.10;;;;;;5074012;28;20346;-72
2021/04/02 11:23:16;;;;;;;4.82;3.38;;;15.20;80.00;;;;;;5074146;28;20060;-72
2021/04/02 11:25:42;;;;;;;5.75;3.53;;;15.70;78.70;;;;;;5072461;28;20090;-72
2021/04/02 11:28:07;;;;;;;8.25;4.00;;;14.80;77.20;;;;;;5073436;28;20070;-72
2021/04/02 11:30:33;;;;;;;5.88;3.35;;;15.50;77.50;;;;;;5088898;28;20032;-72
2021/04/02 11:32:59;;;;;;;7.95;4.03;;;15.90;74.90;;;;;;5073830;28;20029;-71
2021/04/02 11:35:25;;;;;;;5.43;3.80;;;15.80;74.50;;;;;;5073492;28;20067;-72
2021/04/02 11:37:52;;;;;;;6.55;3.85;;;15.00;76.00;;;;;;5073605;28;20036;-72
2021/04/02 11:40:18;;;;;;;5.07;3.22;;;14.90;76.50;;;;;;5073411;28;20089;-72
2021/04/02 11:42:43;;;;;;;4.55;2.90;;;15.50;75.60;;;;;;5072472;28;20033;-71
2021/04/02 11:45:11;;;;;;;5.18;3.47;;;15.70;73.90;;;;;;5073568;28;20035;-72
2021/04/02 11:47:38;;;;;;;10.68;6.40;;;15.00;75.50;;;;;;5073503;28;20315;-70
2021/04/02 11:50:07;;;;;;;9.48;3.70;;;14.80;77.80;;;;;;5073430;28;20028;-72
2021/04/02 11:52:34;;;;;;;4.55;3.05;;;15.50;76.30;;;;;;5073410;28;20037;-71
2021/04/02 11:54:59;;;;;;;6.25;3.13;;;15.40;75.50;;;;;;5072453;28;20504;-72
2021/04/02 11:57:25;;;;;;;5.30;3.00;;;15.40;75.90;;;;;;5073443;28;20067;-71
2021/04/02 11:59:53;;;;;;;5.82;3.58;;;14.90;74.30;;;;;;5073117;28;20025;-72
2021/04/02 12:02:19;;;;;;;8.73;3.42;;;14.90;76.10;;;;;;5072967;28;20119;-71
2021/04/02 12:04:45;;;;;;;4.65;3.35;;;15.10;77.40;;;;;;5073277;28;20120;-71
2021/04/02 12:07:11;;;;;;;25.98;6.00;;;15.80;75.50;;;;;;5072537;28;20186;-71
2021/04/02 12:09:37;;;;;;;9.45;3.58;;;15.00;76.90;;;;;;5073086;28;20032;-72
2021/04/02 12:12:04;;;;;;;6.03;3.05;;;15.40;74.30;;;;;;5088351;28;20047;-72
2021/04/02 12:14:29;;;;;;;4.60;3.05;;;15.10;75.40;;;;;;5072920;28;20060;-71
2021/04/02 12:16:55;;;;;;;5.53;3.25;;;16.00;73.60;;;;;;5072958;28;20109;-71
2021/04/02 12:19:21;;;;;;;5.35;2.92;;;17.20;70.10;;;;;;5072823;28;20043;-72
2021/04/02 12:21:47;;;;;;;4.75;3.15;;;17.90;68.10;;;;;;5072716;28;20025;-71
2021/04/02 12:24:12;;;;;;;6.47;3.58;;;17.60;67.90;;;;;;5072386;28;20443;-72
2021/04/02 12:26:38;;;;;;;5.57;3.60;;;17.50;68.10;;;;;;5072758;28;20070;-71
2021/04/02 12:29:05;;;;;;;6.65;3.20;;;18.10;67.10;;;;;;5072523;28;20047;-71
2021/04/02 12:31:31;;;;;;;5.68;3.42;;;18.40;65.80;;;;;;5088103;28;20485;-72
2021/04/02 12:33:56;;;;;;;4.18;2.92;;;19.40;62.80;;;;;;5072804;28;20047;-71
2021/04/02 12:36:22;;;;;;;5.15;3.20;;;20.60;59.80;;;;;;5072414;28;20079;-72
2021/04/02 12:38:48;;;;;;;4.35;2.95;;;21.10;56.80;;;;;;5072670;28;20861;-71
2021/04/02 12:41:14;;;;;;;5.97;3.30;;;21.30;55.90;;;;;;5088098;28;20021;-71
2021/04/02 12:43:39;;;;;;;9.32;6.93;;;20.30;56.10;;;;;;5072680;28;20036;-70
2021/04/02 12:46:05;;;;;;;5.28;3.30;;;20.10;57.10;;;;;;5087859;28;20029;-70
2021/04/02 12:48:32;;;;;;;5.63;3.40;;;20.80;56.30;;;;;;5072129;28;20032;-72
2021/04/02 12:50:59;;;;;;;4.90;3.30;;;19.80;56.70;;;;;;5087938;28;20028;-71
2021/04/02 12:53:27;;;;;;;5.00;3.03;;;20.40;55.50;;;;;;5072465;28;20494;-71
2021/04/02 12:55:53;;;;;;;6.00;3.55;;;20.00;57.00;;;;;;5087963;28;20028;-72
2021/04/02 12:58:19;;;;;;;5.47;3.20;;;21.00;54.10;;;;;;5087295;28;20041;-71
2021/04/02 13:00:46;;;;;;;13.63;7.65;;;20.20;54.70;;;;;;5072303;28;20486;-72
2021/04/02 13:03:12;;;;;;;5.50;3.38;;;19.20;55.20;;;;;;5072158;28;20064;-71